Time;durP1;ratioP1;P1;durP2;ratioP2;P2;SDS_P1;SDS_P2;PMS_P1;PMS_P2;Temp;Humidity;BMP_temperature;BMP_pressure;BME280_temperature;BME280_humidity;BME280_pressure;Samples;Min_cycle;Max_cycle;Signal;HPM_P1;HPM_P2
2023/07/27 00:00:40;;;;;;;3.25;2.00;;;;;;;20.73;100.00;99453.94;5019093;28;20042;-75
2023/07/27 00:03:06;;;;;;;3.28;2.10;;;;;;;20.18;100.00;99369.94;5011452;28;20414;-74
2023/07/27 00:05:32;;;;;;;3.58;2.35;;;;;;;20.92;100.00;99464.41;5025089;28;20386;-74
2023/07/27 00:07:57;;;;;;;4.68;2.22;;;;;;;20.27;100.00;99366.75;5015028;28;20048;-74
2023/07/27 00:10:24;;;;;;;3.97;1.85;;;;;;;20.57;100.00;99453.94;5015200;28;20382;-74
2023/07/27 00:12:50;;;;;;;4.78;2.10;;;;;;;20.88;100.00;99466.38;5016768;28;20754;-74
2023/07/27 00:15:15;;;;;;;3.90;2.15;;;;;;;20.35;100.00;99366.34;5013621;28;20484;-73
2023/07/27 00:17:41;;;;;;;6.07;2.28;;;;;;;20.74;100.00;99444.97;5014505;28;20037;-74
2023/07/27 00:20:07;;;;;;;6.20;2.97;;;;;;;19.72;100.00;99269.56;5015645;28;20458;-73
2023/07/27 00:22:32;;;;;;;5.50;2.80;;;;;;;20.95;100.00;99462.41;5018203;28;20045;-76
2023/07/27 00:24:57;;;;;;;6.20;3.13;;;;;;;20.85;100.00;99461.22;5005735;28;20066;-75
2023/07/27 00:27:23;;;;;;;4.32;2.25;;;;;;;20.31;100.00;99357.66;5012100;28;20477;-74
2023/07/27 00:29:48;;;;;;;6.03;2.25;;;;;;;20.28;100.00;99320.53;5007896;28;20044;-76
2023/07/27 00:32:14;;;;;;;3.35;1.50;;;;;;;20.86;100.00;99422.94;5013066;28;20186;-74
2023/07/27 00:34:39;;;;;;;3.83;2.10;;;;;;;20.40;100.00;99334.97;5009183;28;20054;-75
2023/07/27 00:37:05;;;;;;;5.05;1.80;;;;;;;19.92;100.00;99303.03;5008829;28;20042;-75
2023/07/27 00:39:31;;;;;;;5.38;2.55;;;;;;;20.59;100.00;99409.41;5005269;28;20041;-74
2023/07/27 00:41:56;;;;;;;4.85;2.00;;;;;;;19.71;100.00;99229.69;5009140;28;20092;-74
2023/07/27 00:44:22;;;;;;;3.47;1.60;;;;;;;20.60;100.00;99409.34;5013038;28;20075;-75
2023/07/27 00:46:47;;;;;;;2.05;1.45;;;;;;;20.54;100.00;99390.13;5008969;28;20045;-76
2023/07/27 00:49:13;;;;;;;3.58;2.53;;;;;;;20.63;100.00;99390.47;5013263;28;20041;-73
2023/07/27 00:51:42;;;;;;;4.05;1.60;;;;;;;20.14;100.00;99339.13;5006972;28;20114;-75
2023/07/27 00:54:09;;;;;;;2.90;2.50;;;;;;;19.55;100.00;99219.03;5014037;28;20045;-75
2023/07/27 00:56:37;;;;;;;2.47;1.50;;;;;;;20.45;100.00;99379.03;5012183;28;20791;-75
2023/07/27 00:59:03;;;;;;;2.63;1.40;;;;;;;20.64;100.00;99418.00;5010590;28;20049;-75
2023/07/27 01:01:29;;;;;;;4.93;2.75;;;;;;;20.62;100.00;99425.22;5020070;28;20398;-74
2023/07/27 01:03:55;;;;;;;7.85;2.45;;;;;;;20.48;100.00;99417.13;5019340;28;20057;-74
2023/07/27 01:06:22;;;;;;;4.18;1.70;;;;;;;20.05;100.00;99340.50;5009774;28;20481;-74
2023/07/27 01:08:47;;;;;;;3.90;1.40;;;;;;;20.57;100.00;99409.47;5017496;28;20113;-77
2023/07/27 01:11:25;;;;;;;2.40;1.73;;;;;;;20.59;100.00;99423.59;5012716;28;20033;-75
2023/07/27 01:14:23;;;;;;;4.00;0.98;;;;;;;20.41;100.00;99403.28;5012005;28;20080;-76
2023/07/27 01:16:57;;;;;;;3.75;2.35;;;;;;;20.61;100.00;99423.50;5021840;28;20055;-76
2023/07/27 01:19:41;;;;;;;2.67;1.42;;;;;;;20.43;100.00;99409.38;5014929;28;20042;-75
2023/07/27 01:22:29;;;;;;;3.63;1.52;;;;;;;20.60;100.00;99421.78;5019391;28;20054;-75
2023/07/27 01:25:25;;;;;;;1.80;1.30;;;;;;;20.55;100.00;99416.66;5004410;28;20058;-75
2023/07/27 01:28:12;;;;;;;4.78;2.22;;;;;;;20.69;100.00;99429.25;5017490;28;20072;-76
2023/07/27 01:30:53;;;;;;;4.43;1.83;;;;;;;20.56;100.00;99428.25;5007854;28;20033;-74
2023/07/27 01:33:28;;;;;;;4.28;1.35;;;;;;;20.14;100.00;99342.63;5002635;28;20058;-75
2023/07/27 01:36:08;;;;;;;1.45;0.95;;;;;;;19.72;100.00;99308.63;5006186;28;20053;-76
2023/07/27 01:38:37;;;;;;;6.13;1.67;;;;;;;20.48;100.00;99436.63;5006417;28;20050;-76
2023/07/27 01:41:05;;;;;;;3.60;2.17;;;;;;;20.34;100.00;99437.41;4999674;28;20150;-76
2023/07/27 01:43:31;;;;;;;4.35;2.28;;;;;;;19.91;100.00;99351.06;5012006;28;20050;-75
2023/07/27 01:45:58;;;;;;;2.85;1.55;;;;;;;20.29;100.00;99414.63;5016201;28;20050;-75
2023/07/27 01:48:26;;;;;;;2.40;1.60;;;;;;;20.32;100.00;99430.44;5022165;28;20045;-75
2023/07/27 01:50:55;;;;;;;4.10;1.85;;;;;;;20.44;100.00;99435.09;5008736;28;20068;-75
2023/07/27 01:53:24;;;;;;;3.83;1.55;;;;;;;19.92;100.00;99340.31;5010576;28;20433;-75
2023/07/27 01:55:50;;;;;;;3.38;1.92;;;;;;;20.32;100.00;99443.75;5015295;28;20061;-75
2023/07/27 01:58:19;;;;;;;6.85;2.38;;;;;;;20.52;100.00;99466.66;5010471;28;20038;-75
2023/07/27 02:00:45;;;;;;;2.13;1.30;;;;;;;19.75;100.00;99349.22;5009864;28;20449;-74
2023/07/27 02:03:11;;;;;;;2.85;1.95;;;;;;;20.35;100.00;99457.78;5013281;28;20095;-75
2023/07/27 02:05:37;;;;;;;3.58;1.90;;;;;;;19.69;100.00;99344.25;5010181;28;20025;-75
2023/07/27 02:08:02;;;;;;;2.85;1.30;;;;;;;19.79;100.00;99355.25;5007074;28;20068;-74
2023/07/27 02:10:30;;;;;;;4.07;2.58;;;;;;;20.02;100.00;99416.09;5015435;28;20069;-75
2023/07/27 02:13:27;;;;;;;2.50;1.05;;;;;;;20.22;100.00;99462.06;5019097;28;20124;-74
2023/07/27 02:16:19;;;;;;;1.98;1.10;;;;;;;19.56;100.00;99393.72;5003674;28;20061;-75
2023/07/27 02:18:48;;;;;;;2.92;1.30;;;;;;;19.45;100.00;99372.16;5019114;28;20405;-75
2023/07/27 02:21:14;;;;;;;2.35;1.25;;;;;;;19.99;100.00;99488.16;5011009;28;20045;-75
2023/07/27 02:23:40;;;;;;;3.97;1.67;;;;;;;19.54;100.00;99383.16;5014207;28;20104;-74
2023/07/27 02:26:06;;;;;;;2.92;1.70;;;;;;;19.67;100.00;99414.47;4990010;28;20058;-74
2023/07/27 02:28:33;;;;;;;2.63;1.50;;;;;;;20.14;100.00;99509.59;4987964;28;20038;-74
2023/07/27 02:30:59;;;;;;;2.97;1.40;;;;;;;19.61;100.00;99410.31;5004388;28;20524;-74
2023/07/27 02:33:24;;;;;;;1.75;0.90;;;;;;;19.69;100.00;99418.78;5000140;28;20062;-73
2023/07/27 02:35:50;;;;;;;2.42;1.23;;;;;;;20.20;100.00;99511.91;4989513;28;20092;-75
2023/07/27 02:38:16;;;;;;;2.97;1.05;;;;;;;19.58;100.00;99431.78;4996018;28;20044;-74
2023/07/27 02:40:42;;;;;;;2.03;0.98;;;;;;;19.37;100.00;99405.34;4987447;28;20050;-74
2023/07/27 02:43:08;;;;;;;3.05;1.27;;;;;;;19.66;100.00;99418.91;5000069;28;20056;-74
2023/07/27 02:45:33;;;;;;;3.13;1.40;;;;;;;19.92;100.00;99507.19;5011875;28;20188;-75
2023/07/27 02:47:58;;;;;;;2.35;1.20;;;;;;;19.63;100.00;99429.72;4998831;28;20034;-75
2023/07/27 02:50:24;;;;;;;3.70;1.75;;;;;;;19.25;100.00;99416.63;5011733;28;20057;-75
2023/07/27 02:52:49;;;;;;;1.27;0.77;;;;;;;20.10;100.00;99524.00;4996919;28;20052;-76
2023/07/27 02:55:15;;;;;;;4.80;2.28;;;;;;;19.81;100.00;99497.13;4988835;28;20054;-75
2023/07/27 02:57:40;;;;;;;4.45;1.85;;;;;;;19.26;100.00;99402.38;4999059;28;20069;-74
2023/07/27 03:00:08;;;;;;;3.63;1.42;;;;;;;19.38;100.00;99399.06;5009507;28;20053;-73
2023/07/27 03:02:33;;;;;;;4.93;2.15;;;;;;;19.51;100.00;99438.34;4995945;28;20491;-74
2023/07/27 03:05:01;;;;;;;3.17;1.63;;;;;;;20.13;100.00;99513.19;4990215;28;20060;-74
2023/07/27 03:07:27;;;;;;;2.08;1.75;;;;;;;19.96;100.00;99511.44;5000241;28;20696;-73
2023/07/27 03:09:53;;;;;;;3.15;1.92;;;;;;;19.43;100.00;99395.31;5005852;28;20054;-75
2023/07/27 03:12:18;;;;;;;0.63;0.60;;;;;;;19.52;100.00;99418.78;5012674;28;20046;-75
2023/07/27 03:14:43;;;;;;;3.33;1.65;;;;;;;19.92;100.00;99524.03;5016386;28;20478;-76
2023/07/27 03:17:09;;;;;;;4.10;1.63;;;;;;;19.30;100.00;99401.28;5006851;28;20052;-76
2023/07/27 03:19:34;;;;;;;3.17;1.92;;;;;;;19.27;100.00;99392.59;5015936;28;20057;-76
2023/07/27 03:22:00;;;;;;;9.95;2.00;;;;;;;19.06;100.00;99366.19;5012743;28;20069;-77
2023/07/27 03:24:26;;;;;;;3.38;1.85;;;;;;;19.89;100.00;99478.94;5008287;28;20417;-77
2023/07/27 03:26:51;;;;;;;3.95;1.52;;;;;;;19.48;100.00;99402.13;5004148;28;20034;-75
2023/07/27 03:29:17;;;;;;;2.22;1.00;;;;;;;19.86;100.00;99483.59;5017519;28;20517;-75
2023/07/27 03:31:42;;;;;;;2.17;1.23;;;;;;;19.75;100.00;99513.41;5008832;28;20038;-75
2023/07/27 03:34:08;;;;;;;1.73;1.23;;;;;;;19.85;100.00;99504.00;5003537;28;20045;-75
2023/07/27 03:36:33;;;;;;;3.63;1.45;;;;;;;19.50;100.00;99418.88;5013197;28;20041;-74
2023/07/27 03:38:59;;;;;;;3.78;2.45;;;;;;;19.90;100.00;99491.31;5012253;28;20025;-74
2023/07/27 03:41:24;;;;;;;2.65;1.55;;;;;;;19.51;100.00;99423.25;5001587;28;20508;-74
2023/07/27 03:43:50;;;;;;;3.15;1.55;;;;;;;19.25;100.00;99429.94;5012269;28;20057;-74
2023/07/27 03:46:15;;;;;;;1.98;1.10;;;;;;;19.95;100.00;99507.06;5011812;28;20072;-74
2023/07/27 03:48:41;;;;;;;10.48;1.73;;;;;;;19.58;100.00;99408.66;5018567;28;20070;-74
2023/07/27 03:51:06;;;;;;;3.35;1.65;;;;;;;19.40;100.00;99402.50;5021679;28;20507;-73
2023/07/27 03:53:32;;;;;;;1.98;1.27;;;;;;;19.51;100.00;99430.38;5019009;28;20037;-74
2023/07/27 03:56:01;;;;;;;5.22;1.92;;;;;;;19.81;100.00;99505.13;5006707;28;20050;-74
2023/07/27 03:58:26;;;;;;;2.88;1.65;;;;;;;19.98;100.00;99509.53;5017826;28;20033;-76
2023/07/27 04:00:52;;;;;;;1.75;0.98;;;;;;;20.00;100.00;99491.69;5010131;28;20041;-75
2023/07/27 04:03:20;;;;;;;6.53;1.58;;;;;;;19.45;100.00;99386.31;5017578;28;20042;-74
2023/07/27 04:05:45;;;;;;;2.60;1.10;;;;;;;20.18;100.00;99511.13;5013279;28;20375;-74
2023/07/27 04:08:11;;;;;;;2.53;1.13;;;;;;;19.02;100.00;99330.06;5017700;28;20045;-74
2023/07/27 04:10:39;;;;;;;4.10;1.80;;;;;;;19.69;100.00;99471.13;5016606;28;20087;-74
2023/07/27 04:13:04;;;;;;;4.47;2.30;;;;;;;19.92;100.00;99484.09;5019218;28;20725;-75
2023/07/27 04:15:30;;;;;;;2.58;1.42;;;;;;;19.69;100.00;99412.59;5015451;28;20037;-74
2023/07/27 04:17:55;;;;;;;2.85;1.85;;;;;;;20.51;100.00;99526.22;5019116;28;20041;-74
2023/07/27 04:20:21;;;;;;;4.72;1.90;;;;;;;19.99;100.00;99439.34;5012301;28;20041;-74
2023/07/27 04:22:47;;;;;;;4.53;1.95;;;;;;;20.09;100.00;99453.03;5007583;28;20572;-74
2023/07/27 04:25:12;;;;;;;2.13;1.35;;;;;;;20.73;100.00;99545.44;5010747;28;20046;-74
2023/07/27 04:27:38;;;;;;;2.92;1.80;;;;;;;20.79;100.00;99538.88;5015225;28;20057;-74
2023/07/27 04:30:04;;;;;;;2.42;1.27;;;;;;;20.75;100.00;99526.69;5016606;28;20104;-74
2023/07/27 04:32:29;;;;;;;2.20;1.13;;;;;;;19.52;100.00;99437.41;5017598;28;20540;-74
2023/07/27 04:34:55;;;;;;;3.67;1.80;;;;;;;19.99;100.00;99450.88;5014466;28;20073;-74
2023/07/27 04:37:23;;;;;;;5.40;1.92;;;;;;;20.05;100.00;99439.03;5020336;28;20037;-74
2023/07/27 04:39:49;;;;;;;4.10;1.90;;;;;;;19.94;100.00;99444.94;5013351;28;20108;-74
2023/07/27 04:42:14;;;;;;;1.88;1.42;;;;;;;20.24;100.00;99479.69;5008378;28;20441;-74
2023/07/27 04:44:39;;;;;;;4.75;2.13;;;;;;;20.45;100.00;99503.44;5016641;28;20033;-75
2023/07/27 04:47:05;;;;;;;2.65;1.52;;;;;;;20.03;100.00;99428.44;5003414;28;20042;-75
2023/07/27 04:49:30;;;;;;;2.40;1.17;;;;;;;19.91;100.00;99428.28;5020589;28;20037;-75
2023/07/27 04:51:56;;;;;;;3.55;1.67;;;;;;;19.81;100.00;99452.72;5019126;28;20050;-74
2023/07/27 04:54:21;;;;;;;2.60;1.42;;;;;;;20.70;100.00;99550.97;5020002;28;20049;-73
2023/07/27 04:56:47;;;;;;;2.70;1.58;;;;;;;19.96;100.00;99424.41;5009026;28;20030;-74
2023/07/27 04:59:12;;;;;;;11.07;2.42;;;;;;;19.97;100.00;99441.22;5011015;28;20576;-74
2023/07/27 05:01:38;;;;;;;2.38;1.40;;;;;;;20.33;100.00;99489.00;5015657;28;20053;-74
2023/07/27 05:04:03;;;;;;;3.45;1.77;;;;;;;20.65;100.00;99580.53;5019878;28;20041;-74
2023/07/27 05:06:29;;;;;;;2.03;1.13;;;;;;;19.69;100.00;99468.47;5015179;28;20065;-74
2023/07/27 05:08:54;;;;;;;2.42;1.15;;;;;;;20.02;100.00;99457.84;5018329;28;20029;-75
2023/07/27 05:11:20;;;;;;;2.05;1.40;;;;;;;20.11;100.00;99441.38;5018035;28;20025;-74
2023/07/27 05:13:45;;;;;;;3.60;1.08;;;;;;;19.60;100.00;99326.09;5022417;28;20064;-75
2023/07/27 05:16:11;;;;;;;4.75;1.98;;;;;;;21.21;100.00;99562.28;5007536;28;20393;-75
2023/07/27 05:18:36;;;;;;;2.42;1.33;;;;;;;21.28;100.00;99552.09;5022085;28;20069;-74
2023/07/27 05:21:02;;;;;;;4.75;2.22;;;;;;;20.60;100.00;99456.44;5011382;28;20119;-73
2023/07/27 05:23:27;;;;;;;4.53;1.23;;;;;;;20.91;100.00;99521.34;5011285;28;20041;-74
2023/07/27 05:25:53;;;;;;;1.83;1.02;;;;;;;20.47;100.00;99444.72;5010950;28;20037;-72
2023/07/27 05:28:19;;;;;;;3.97;2.33;;;;;;;21.21;100.00;99564.94;5009455;28;20077;-74
2023/07/27 05:30:44;;;;;;;2.90;2.05;;;;;;;20.40;100.00;99441.53;5005097;28;20086;-79
2023/07/27 05:33:10;;;;;;;4.18;1.67;;;;;;;20.65;100.00;99489.03;5010078;28;20168;-73
2023/07/27 05:35:35;;;;;;;2.92;1.83;;;;;;;21.14;100.00;99544.03;5009437;28;20058;-74
2023/07/27 05:38:00;;;;;;;3.08;1.70;;;;;;;21.22;100.00;99565.81;4999863;28;20085;-74
2023/07/27 05:40:26;;;;;;;6.32;2.50;;;;;;;20.74;100.00;99531.16;5008148;28;20058;-74
2023/07/27 05:42:51;;;;;;;4.30;2.10;;;;;;;20.73;100.00;99550.78;5009890;28;20037;-75
2023/07/27 05:45:17;;;;;;;3.50;1.45;;;;;;;20.87;100.00;99577.53;5018878;28;20565;-74
2023/07/27 05:47:42;;;;;;;7.07;2.22;;;;;;;20.25;100.00;99507.19;5006605;28;20501;-74
2023/07/27 05:50:08;;;;;;;6.47;2.50;;;;;;;20.91;100.00;99614.69;5012971;28;20741;-74
2023/07/27 05:52:34;;;;;;;3.03;1.77;;;;;;;20.40;100.00;99500.16;5015866;28;20913;-74
2023/07/27 05:55:00;;;;;;;4.63;2.15;;;;;;;21.38;100.00;99608.50;5011192;28;20056;-73
2023/07/27 05:57:25;;;;;;;3.65;1.63;;;;;;;21.44;100.00;99595.66;5015279;28;20765;-73
2023/07/27 05:59:51;;;;;;;2.60;1.30;;;;;;;21.45;100.00;99607.22;5014666;28;20823;-74
2023/07/27 06:02:16;;;;;;;4.40;2.97;;;;;;;20.99;100.00;99532.44;5014368;28;20390;-74
2023/07/27 06:04:42;;;;;;;3.42;2.00;;;;;;;21.46;100.00;99611.59;5009252;28;20050;-74
2023/07/27 06:07:07;;;;;;;3.20;2.30;;;;;;;21.49;100.00;99606.94;5015634;28;20140;-73
2023/07/27 06:09:36;;;;;;;3.00;2.28;;;;;;;21.55;100.00;99618.22;5008999;28;20456;-75
2023/07/27 06:12:13;;;;;;;4.38;2.08;;;;;;;20.95;100.00;99536.22;5008652;28;20072;-74
2023/07/27 06:14:39;;;;;;;4.60;2.33;;;;;;;21.34;100.00;99577.59;5013529;28;20063;-74
2023/07/27 06:17:06;;;;;;;4.95;1.90;;;;;;;21.08;100.00;99537.25;5018465;28;20049;-74
2023/07/27 06:19:31;;;;;;;4.13;2.33;;;;;;;21.63;100.00;99627.50;5012976;28;20120;-74
2023/07/27 06:21:57;;;;;;;18.55;2.90;;;;;;;20.56;100.00;99420.25;5017516;28;20059;-75
2023/07/27 06:24:22;;;;;;;5.53;2.15;;;;;;;21.27;100.00;99511.22;5017915;28;20421;-75
2023/07/27 06:26:48;;;;;;;7.22;2.75;;;;;;;22.09;100.00;99595.38;5005151;28;20030;-75
2023/07/27 06:29:13;;;;;;;3.88;2.38;;;;;;;22.20;100.00;99594.72;5015971;28;20045;-75
2023/07/27 06:31:39;;;;;;;3.55;2.40;;;;;;;21.42;100.00;99487.25;5010594;28;20834;-74
2023/07/27 06:34:04;;;;;;;6.30;3.83;;;;;;;22.72;100.00;99590.63;5018563;28;20054;-74
2023/07/27 06:36:30;;;;;;;4.10;2.28;;;;;;;23.46;100.00;99561.75;5009733;28;20046;-73
2023/07/27 06:38:55;;;;;;;5.57;3.15;;;;;;;23.75;100.00;99566.03;5012486;28;20494;-75
2023/07/27 06:41:25;;;;;;;7.13;3.25;;;;;;;23.46;100.00;99479.63;5012051;28;20052;-75
2023/07/27 06:43:51;;;;;;;6.60;3.58;;;;;;;24.44;100.00;99587.19;5008416;28;20129;-74
2023/07/27 06:46:18;;;;;;;6.10;3.78;;;;;;;24.23;100.00;99582.38;5018577;28;20613;-74
2023/07/27 06:48:43;;;;;;;7.95;3.85;;;;;;;23.80;100.00;99574.63;5014216;28;20056;-75
2023/07/27 06:51:09;;;;;;;4.15;3.17;;;;;;;23.56;100.00;99526.22;5006719;28;20053;-74
2023/07/27 06:53:34;;;;;;;3.05;1.67;;;;;;;24.44;100.00;99617.56;5016316;28;20663;-69
2023/07/27 06:56:00;;;;;;;7.97;4.13;;;;;;;24.70;100.00;99616.69;5007360;28;20502;-74
2023/07/27 06:58:25;;;;;;;4.47;2.53;;;;;;;24.05;100.00;99516.66;5001092;28;20073;-73
2023/07/27 07:00:54;;;;;;;3.97;2.55;;;;;;;25.05;100.00;99649.94;5004782;28;20060;-74
2023/07/27 07:03:19;;;;;;;6.47;3.13;;;;;;;24.63;100.00;99602.84;5009947;28;20452;-74
2023/07/27 07:05:46;;;;;;;5.90;3.80;;;;;;;24.49;100.00;99619.97;5004999;28;20059;-73
2023/07/27 07:08:11;;;;;;;13.73;3.35;;;;;;;24.27;100.00;99548.16;5004884;28;20056;-72
2023/07/27 07:10:37;;;;;;;4.60;2.90;;;;;;;24.14;100.00;99544.63;4998965;28;20038;-72
2023/07/27 07:13:03;;;;;;;1.98;1.35;;;;;;;24.54;100.00;99544.53;5006893;28;20049;-72
2023/07/27 07:15:28;;;;;;;3.33;2.47;;;;;;;24.18;100.00;99509.44;4999771;28;20540;-74
2023/07/27 07:17:54;;;;;;;4.40;2.53;;;;;;;24.61;100.00;99634.31;5008857;28;20037;-73
2023/07/27 07:20:19;;;;;;;6.18;2.72;;;;;;;24.68;100.00;99546.19;5014576;28;20537;-74
2023/07/27 07:22:45;;;;;;;4.22;3.05;;;;;;;24.99;100.00;99633.41;5015431;28;20045;-74
2023/07/27 07:25:10;;;;;;;200.98;117.28;;;;;;;23.14;100.00;99525.47;5011335;28;20042;-74
2023/07/27 07:27:36;;;;;;;58.20;33.75;;;;;;;23.83;100.00;99528.00;5017108;28;20052;-71
2023/07/27 07:30:04;;;;;;;32.00;24.60;;;;;;;22.82;100.00;99556.97;5004900;28;20084;-74
2023/07/27 07:32:31;;;;;;;145.52;66.97;;;;;;;23.03;100.00;99535.19;5010347;28;20486;-74
2023/07/27 07:34:57;;;;;;;251.00;113.45;;;;;;;23.69;100.00;99538.78;5004091;28;20081;-74
2023/07/27 07:37:23;;;;;;;47.60;25.77;;;;;;;24.02;100.00;99528.47;5011391;28;20050;-75
2023/07/27 07:39:48;;;;;;;69.82;32.90;;;;;;;24.00;100.00;99613.47;5011682;28;20052;-72
2023/07/27 07:42:15;;;;;;;8.70;6.05;;;;;;;23.11;100.00;99533.72;5007007;28;20054;-68
2023/07/27 07:44:40;;;;;;;21.45;13.38;;;;;;;23.88;100.00;99582.16;5004052;28;20489;-68
2023/07/27 07:47:06;;;;;;;10.32;7.25;;;;;;;23.77;100.00;99646.31;5006146;28;20077;-68
2023/07/27 07:49:31;;;;;;;16.58;7.70;;;;;;;23.17;100.00;99549.34;5005208;28;20046;-70
2023/07/27 07:51:57;;;;;;;28.38;19.42;;;;;;;24.85;100.00;99645.97;5007609;28;20042;-68
2023/07/27 07:54:22;;;;;;;16.77;10.43;;;;;;;23.75;100.00;99610.75;5003757;28;20046;-66
2023/07/27 07:56:49;;;;;;;9.75;6.63;;;;;;;23.64;100.00;99664.13;5006566;28;20033;-68
2023/07/27 07:59:15;;;;;;;6.70;5.03;;;;;;;22.43;100.00;99574.63;5000885;28;20049;-69
2023/07/27 08:01:43;;;;;;;3.00;1.52;;;;;;;21.91;100.00;99584.00;5006073;28;20050;-69
2023/07/27 08:04:08;;;;;;;2.45;1.20;;;;;;;22.00;100.00;99587.91;4999465;28;20053;-67
2023/07/27 08:06:35;;;;;;;2.20;1.13;;;;;;;22.60;100.00;99672.50;5002980;28;20048;-66
2023/07/27 08:09:01;;;;;;;2.67;1.45;;;;;;;21.42;100.00;99578.00;5024508;28;20104;-67
2023/07/27 08:11:26;;;;;;;8.10;5.65;;;;;;;22.18;100.00;99687.47;5005959;28;20029;-67
2023/07/27 08:13:52;;;;;;;3.13;1.77;;;;;;;20.75;100.00;99497.38;4998244;28;20042;-69
2023/07/27 08:16:18;;;;;;;2.17;0.90;;;;;;;21.75;100.00;99676.66;5002298;28;20527;-67
2023/07/27 08:18:44;;;;;;;28.23;20.17;;;;;;;22.18;100.00;99667.94;5004600;28;20131;-66
2023/07/27 08:21:09;;;;;;;3.47;1.80;;;;;;;21.86;100.00;99678.69;5007324;28;20041;-69
2023/07/27 08:23:35;;;;;;;4.30;2.53;;;;;;;22.12;100.00;99672.69;5006956;28;20038;-67
2023/07/27 08:26:01;;;;;;;11.77;8.15;;;;;;;21.65;100.00;99558.81;5000879;28;20056;-68
2023/07/27 08:28:27;;;;;;;13.32;8.88;;;;;;;22.44;100.00;99688.63;4996834;28;20168;-70
2023/07/27 08:30:53;;;;;;;38.60;20.52;;;;;;;22.41;100.00;99686.13;5006015;28;20869;-68
2023/07/27 08:33:19;;;;;;;10.65;7.38;;;;;;;21.52;100.00;99527.59;5002288;28;20467;-67
2023/07/27 08:35:45;;;;;;;2.20;0.60;;;;;;;21.30;100.00;99672.97;5037657;28;20395;-68
2023/07/27 08:38:10;;;;;;;2.58;2.10;;;;;;;21.22;100.00;99656.53;5006673;28;20050;-68
2023/07/27 08:40:37;;;;;;;1.63;0.73;;;;;;;21.16;100.00;99694.22;5002946;28;20958;-63
2023/07/27 08:43:04;;;;;;;1.42;0.98;;;;;;;21.36;100.00;99698.47;5012518;28;20345;-65
2023/07/27 08:45:30;;;;;;;1.63;0.95;;;;;;;21.67;100.00;99710.94;5006181;28;20030;-71
2023/07/27 08:47:57;;;;;;;5.88;2.60;;;;;;;22.71;100.00;99703.91;4988739;28;20089;-71
2023/07/27 08:50:22;;;;;;;1.73;0.73;;;;;;;22.31;100.00;99736.63;5000664;28;20030;-70
2023/07/27 08:52:48;;;;;;;3.72;1.48;;;;;;;22.16;100.00;99632.41;5005706;28;20571;-70
2023/07/27 08:55:14;;;;;;;1.55;1.05;;;;;;;20.17;100.00;99645.28;5004602;28;20076;-71
2023/07/27 08:57:41;;;;;;;1.27;0.50;;;;;;;18.93;100.00;99638.94;5001474;28;20079;-85
2023/07/27 09:00:09;;;;;;;0.98;0.77;;;;;;;19.55;100.00;99754.81;4995371;28;20091;-86
2023/07/27 09:02:35;;;;;;;1.35;0.90;;;;;;;19.94;100.00;99808.88;5004468;28;20034;-84
2023/07/27 09:05:01;;;;;;;2.88;0.52;;;;;;;19.64;100.00;99803.19;5004532;28;20103;-85
2023/07/27 09:07:27;;;;;;;4.20;1.08;;;;;;;19.35;100.00;99818.72;5004688;28;20065;-87
2023/07/27 09:09:53;;;;;;;2.28;0.57;;;;;;;19.66;100.00;99823.47;5004497;28;20066;-86
2023/07/27 09:12:22;;;;;;;0.40;0.30;;;;;;;18.51;100.00;99733.78;5005468;28;20052;-87
2023/07/27 09:14:47;;;;;;;0.95;0.68;;;;;;;18.80;100.00;99713.09;5006784;28;20414;-87
2023/07/27 09:17:13;;;;;;;0.65;0.28;;;;;;;19.58;100.00;99829.16;5004737;28;20045;-83
2023/07/27 09:19:41;;;;;;;5.10;0.63;;;;;;;19.65;100.00;99877.66;5006250;28;20544;-74
2023/07/27 09:22:07;;;;;;;3.13;0.93;;;;;;;19.36;100.00;99871.88;5003016;28;20046;-74
2023/07/27 09:24:34;;;;;;;7.55;2.10;;;;;;;19.47;100.00;99891.81;4998720;28;20863;-74
2023/07/27 09:27:01;;;;;;;1.67;0.70;;;;;;;18.60;100.00;99808.72;4993388;28;20045;-74
2023/07/27 09:29:27;;;;;;;5.20;0.60;;;;;;;19.01;100.00;99877.88;5001012;28;20509;-73
2023/07/27 09:31:57;;;;;;;0.80;0.68;;;;;;;18.62;100.00;99791.78;5005094;28;20540;-74
2023/07/27 09:34:24;;;;;;;1.95;0.47;;;;;;;19.36;100.00;99860.34;5001162;28;20074;-74
2023/07/27 09:36:49;;;;;;;2.30;0.95;;;;;;;18.90;100.00;99769.34;5002926;28;20080;-75
2023/07/27 09:39:15;;;;;;;2.53;1.50;;;;;;;19.05;100.00;99880.34;5001652;28;20049;-75
2023/07/27 09:41:45;;;;;;;1.55;0.75;;;;;;;18.78;100.00;99893.03;5004741;28;20390;-75
2023/07/27 09:44:15;;;;;;;1.05;0.55;;;;;;;18.53;100.00;99872.75;4999243;28;20042;-74
2023/07/27 09:46:45;;;;;;;1.17;0.75;;;;;;;17.71;100.00;99791.97;5000790;28;20071;-74
2023/07/27 09:49:12;;;;;;;1.45;0.30;;;;;;;17.89;100.00;99782.44;5004203;28;20053;-77
2023/07/27 09:51:37;;;;;;;1.80;0.70;;;;;;;19.00;100.00;99908.06;5002952;28;20160;-75
2023/07/27 09:54:05;;;;;;;0.63;0.50;;;;;;;19.02;100.00;99908.88;4999098;28;20188;-76
2023/07/27 09:56:31;;;;;;;1.40;0.65;;;;;;;18.98;100.00;99876.22;4988253;28;20445;-74
2023/07/27 09:58:58;;;;;;;0.98;0.57;;;;;;;19.20;100.00;99902.75;5000361;28;20057;-75
2023/07/27 10:01:25;;;;;;;1.38;0.90;;;;;;;19.64;100.00;99915.84;5000479;28;20050;-75
2023/07/27 10:03:50;;;;;;;1.23;0.57;;;;;;;20.08;100.00;99915.63;4997090;28;20046;-75
2023/07/27 10:06:17;;;;;;;0.82;0.55;;;;;;;18.61;100.00;99786.53;5003665;28;20103;-75
2023/07/27 10:08:44;;;;;;;0.38;0.38;;;;;;;19.31;100.00;99891.63;5000883;28;20084;-75
2023/07/27 10:11:10;;;;;;;0.40;0.28;;;;;;;19.23;100.00;99893.78;4996387;28;20045;-74
2023/07/27 10:13:39;;;;;;;1.13;0.45;;;;;;;19.46;100.00;99876.78;4999861;28;20046;-75
2023/07/27 10:16:09;;;;;;;0.65;0.40;;;;;;;19.86;100.00;99875.84;5002024;28;20061;-75
2023/07/27 10:18:43;;;;;;;1.42;1.27;;;;;;;19.55;100.00;99868.34;4999672;28;20397;-75
2023/07/27 10:21:28;;;;;;;0.50;0.32;;;;;;;19.92;100.00;99864.03;4994968;28;20054;-74
2023/07/27 10:23:56;;;;;;;1.45;0.68;;;;;;;19.22;100.00;99863.63;4994488;28;20188;-74
2023/07/27 10:26:44;;;;;;;0.52;0.50;;;;;;;19.12;100.00;99859.66;5001157;28;20030;-73
2023/07/27 10:29:18;;;;;;;2.08;0.70;;;;;;;19.26;100.00;99865.22;4978746;28;20192;-74
2023/07/27 10:31:45;;;;;;;3.60;2.28;;;;;;;17.99;100.00;99751.09;4998447;28;20414;-75
2023/07/27 10:34:16;;;;;;;2.72;0.30;;;;;;;18.57;100.00;99844.28;4987433;28;20047;-75
2023/07/27 10:36:48;;;;;;;1.20;0.57;;;;;;;18.62;100.00;99865.34;4988914;28;20062;-74
2023/07/27 10:39:21;;;;;;;1.92;1.13;;;;;;;18.97;100.00;99887.78;4991138;28;20074;-74
2023/07/27 10:42:05;;;;;;;1.75;0.70;;;;;;;18.33;100.00;99787.69;4979436;28;20088;-75
2023/07/27 10:44:41;;;;;;;0.77;0.25;;;;;;;17.95;100.00;99776.03;4993978;28;20058;-74
2023/07/27 10:47:15;;;;;;;0.52;0.43;;;;;;;18.10;100.00;99794.00;4998165;28;20053;-74
2023/07/27 10:49:45;;;;;;;0.40;0.32;;;;;;;19.01;100.00;99884.09;4999863;28;20794;-76
2023/07/27 10:52:18;;;;;;;2.22;0.85;;;;;;;19.37;100.00;99888.69;4982656;28;20042;-74
2023/07/27 10:54:45;;;;;;;1.50;0.73;;;;;;;18.89;100.00;99804.81;4980079;28;20153;-74
2023/07/27 10:57:12;;;;;;;1.25;0.55;;;;;;;19.70;100.00;99922.75;4999568;28;20061;-74
2023/07/27 10:59:39;;;;;;;2.13;1.33;;;;;;;19.77;100.00;99932.19;4988539;28;20042;-75
2023/07/27 11:02:11;;;;;;;0.80;0.55;;;;;;;18.35;100.00;99789.38;4987381;28;20165;-74
2023/07/27 11:04:39;;;;;;;2.42;0.82;;;;;;;18.96;100.00;99843.50;4997862;28;20046;-74
2023/07/27 11:07:05;;;;;;;2.08;0.98;;;;;;;21.56;100.00;99799.66;4997341;28;20078;-79
2023/07/27 11:09:31;;;;;;;1.33;0.75;;;;;;;22.07;100.00;99847.59;4988263;28;20133;-80
2023/07/27 11:12:02;;;;;;;2.65;0.88;;;;;;;20.76;100.00;99838.56;4996415;28;20026;-76
2023/07/27 11:14:28;;;;;;;2.83;0.93;;;;;;;21.09;100.00;99891.09;4977480;28;20104;-75
2023/07/27 11:16:54;;;;;;;0.77;0.50;;;;;;;21.35;100.00;99824.81;4999059;28;20511;-75
2023/07/27 11:19:21;;;;;;;0.63;0.40;;;;;;;19.24;100.00;99800.59;4994211;28;20510;-79
2023/07/27 11:21:49;;;;;;;1.00;0.40;;;;;;;22.28;100.00;99808.09;4986016;28;20521;-79
2023/07/27 11:24:16;;;;;;;1.70;1.05;;;;;;;20.58;100.00;99802.19;4980525;28;20050;-77